createdAt,value
2023-04-28T00:00:07.678Z,21.25
2023-04-28T00:02:36.134Z,13.20
2023-04-28T00:05:06.882Z,14.98
2023-04-28T00:07:35.280Z,22.45
2023-04-28T00:10:03.690Z,18.30
2023-04-28T00:12:32.008Z,22.17
2023-04-28T00:15:00.318Z,15.52
2023-04-28T00:17:28.715Z,16.20
2023-04-28T00:19:57.635Z,19.50
2023-04-28T00:22:27.250Z,20.90
2023-04-28T00:24:55.514Z,16.05
2023-04-28T00:27:23.924Z,21.70
2023-04-28T00:29:53.072Z,21.10
2023-04-28T00:32:21.444Z,18.17
2023-04-28T00:34:49.757Z,16.55
2023-04-28T00:37:17.990Z,21.70
2023-04-28T00:39:47.926Z,18.85
2023-04-28T00:42:16.366Z,19.45
2023-04-28T00:44:44.636Z,23.23
2023-04-28T00:47:12.922Z,23.50
2023-04-28T00:49:41.295Z,29.88
2023-04-28T00:52:09.806Z,31.65
2023-04-28T00:54:38.792Z,20.92
2023-04-28T00:57:08.633Z,25.70
2023-04-28T00:59:36.985Z,27.00
2023-04-28T01:02:06.484Z,19.55
2023-04-28T01:04:34.945Z,20.55
2023-04-28T01:07:04.071Z,19.80
2023-04-28T01:09:32.333Z,18.02
2023-04-28T01:12:00.592Z,21.75
2023-04-28T01:14:30.256Z,13.18
2023-04-28T01:16:58.826Z,13.90
2023-04-28T01:19:27.988Z,11.43
2023-04-28T01:21:56.297Z,13.25
2023-04-28T01:24:26.131Z,13.63
2023-04-28T01:26:54.478Z,12.10
2023-04-28T01:29:22.745Z,18.02
2023-04-28T01:31:51.059Z,12.65
2023-04-28T01:34:19.849Z,15.45
2023-04-28T01:36:48.887Z,12.77
2023-04-28T01:39:17.449Z,11.57
2023-04-28T01:41:47.070Z,11.68
2023-04-28T01:44:15.534Z,16.33
2023-04-28T01:46:43.994Z,13.63
2023-04-28T01:49:12.277Z,14.38
2023-04-28T01:51:41.708Z,13.95
2023-04-28T01:54:10.073Z,11.70
2023-04-28T01:56:38.381Z,10.32
2023-04-28T01:59:08.176Z,11.13
2023-04-28T02:01:36.496Z,16.52
2023-04-28T02:04:04.837Z,13.35
2023-04-28T02:06:33.128Z,12.98
2023-04-28T02:09:01.485Z,13.43
2023-04-28T02:11:29.835Z,16.38
2023-04-28T02:13:58.076Z,15.15
2023-04-28T02:16:27.820Z,13.80
2023-04-28T02:18:56.500Z,14.40
2023-04-28T02:21:26.374Z,16.65
2023-04-28T02:23:54.698Z,16.30
2023-04-28T02:26:22.947Z,17.10
2023-04-28T02:28:51.373Z,14.60
2023-04-28T02:31:19.672Z,16.52
2023-04-28T02:33:49.320Z,16.65
2023-04-28T02:36:17.744Z,17.20
2023-04-28T02:38:46.367Z,15.50
2023-04-28T02:41:15.464Z,15.20
2023-04-28T02:43:43.783Z,14.00
2023-04-28T02:46:12.774Z,15.70
2023-04-28T02:48:41.651Z,16.85
2023-04-28T02:51:11.929Z,16.52
2023-04-28T02:53:40.184Z,18.23
2023-04-28T02:56:09.034Z,16.67
2023-04-28T02:58:37.311Z,15.70
2023-04-28T03:01:06.282Z,13.95
2023-04-28T03:03:34.802Z,12.18
2023-04-28T03:06:03.262Z,13.30
2023-04-28T03:08:33.201Z,13.18
2023-04-28T03:11:01.520Z,13.05
2023-04-28T03:13:30.519Z,19.13
2023-04-28T03:15:58.878Z,13.32
2023-04-28T03:18:27.183Z,15.50
2023-04-28T03:20:55.858Z,15.13
2023-04-28T03:23:24.182Z,12.65
2023-04-28T03:25:54.011Z,15.75
2023-04-28T03:28:22.294Z,16.00
2023-04-28T03:30:50.651Z,13.23
2023-04-28T03:33:18.960Z,15.90
2023-04-28T03:35:47.660Z,13.85
2023-04-28T03:38:16.454Z,12.73
2023-04-28T03:40:44.721Z,9.52
2023-04-28T03:43:14.581Z,12.95
2023-04-28T03:45:42.846Z,16.40
2023-04-28T03:48:11.375Z,12.48
2023-04-28T03:50:40.957Z,13.05
2023-04-28T03:53:15.496Z,14.02
2023-04-28T03:55:43.730Z,16.00
2023-04-28T03:58:12.052Z,17.50
2023-04-28T04:00:41.760Z,21.13
2023-04-28T04:03:10.378Z,22.17
2023-04-28T04:05:40.945Z,25.38
2023-04-28T04:08:09.391Z,19.90
2023-04-28T04:10:37.667Z,16.25
2023-04-28T04:13:05.925Z,17.52
2023-04-28T04:15:34.308Z,22.77
2023-04-28T04:18:03.977Z,17.85
2023-04-28T04:20:32.289Z,18.85
2023-04-28T04:23:01.573Z,16.75
2023-04-28T04:25:29.807Z,23.02
2023-04-28T04:27:58.156Z,20.70
2023-04-28T04:30:26.536Z,20.80
2023-04-28T04:32:54.879Z,23.10
2023-04-28T04:35:24.465Z,17.52
2023-04-28T04:37:52.759Z,18.40
2023-04-28T04:40:21.025Z,19.35
2023-04-28T04:42:49.233Z,21.90
2023-04-28T04:45:17.705Z,22.98
2023-04-28T04:47:46.154Z,14.98
2023-04-28T04:50:14.945Z,11.73
2023-04-28T04:52:44.554Z,15.57
2023-04-28T04:55:12.872Z,10.57
2023-04-28T04:57:41.204Z,13.55
2023-04-28T05:00:10.778Z,11.05
2023-04-28T05:02:39.275Z,8.85
2023-04-28T05:05:19.693Z,8.85
2023-04-28T05:07:50.768Z,9.40
2023-04-28T05:10:19.103Z,11.13
2023-04-28T05:12:49.211Z,10.15
2023-04-28T05:15:17.845Z,9.43
2023-04-28T05:17:46.333Z,10.23
2023-04-28T05:20:15.112Z,7.82
2023-04-28T05:22:43.329Z,10.32
2023-04-28T05:25:12.927Z,6.30
2023-04-28T05:27:41.252Z,10.63
2023-04-28T05:30:10.879Z,7.32
2023-04-28T05:32:39.830Z,8.57
2023-04-28T05:35:09.342Z,5.63
2023-04-28T05:37:38.216Z,5.57
2023-04-28T05:40:08.034Z,4.88
2023-04-28T05:42:37.721Z,5.38
2023-04-28T05:45:08.067Z,6.43
2023-04-28T05:47:36.761Z,7.63
2023-04-28T05:50:05.653Z,3.65
2023-04-28T05:52:34.039Z,4.40
2023-04-28T05:55:02.451Z,4.15
2023-04-28T05:57:33.977Z,4.88
2023-04-28T06:00:13.229Z,6.00
2023-04-28T06:02:41.687Z,4.82
2023-04-28T06:05:10.733Z,5.25
2023-04-28T06:07:39.100Z,5.65
2023-04-28T06:10:08.530Z,4.72
2023-04-28T06:12:36.790Z,3.10
2023-04-28T06:15:06.603Z,7.10
2023-04-28T06:17:36.387Z,4.95
2023-04-28T06:20:05.239Z,3.90
2023-04-28T06:22:33.481Z,5.25
2023-04-28T06:25:01.775Z,8.52
2023-04-28T06:27:32.769Z,3.67
2023-04-28T06:30:01.092Z,5.60
2023-04-28T06:32:29.474Z,3.33
2023-04-28T06:34:59.331Z,4.18
2023-04-28T06:37:27.892Z,4.78
2023-04-28T06:39:56.130Z,6.03
2023-04-28T06:42:26.026Z,7.30
2023-04-28T06:44:55.137Z,6.68
2023-04-28T06:47:23.430Z,5.38
2023-04-28T06:49:51.725Z,12.45
2023-04-28T06:52:27.126Z,7.20
2023-04-28T06:55:01.383Z,3.95
2023-04-28T06:57:29.756Z,5.13
2023-04-28T06:59:58.049Z,6.47
2023-04-28T07:02:26.555Z,5.07
2023-04-28T07:04:55.405Z,6.15
2023-04-28T07:07:25.014Z,5.10
2023-04-28T07:09:53.620Z,4.32
2023-04-28T07:12:22.248Z,4.68
2023-04-28T07:14:51.678Z,3.63
2023-04-28T07:17:20.040Z,5.18
2023-04-28T07:19:49.958Z,4.75
2023-04-28T07:22:18.602Z,4.70
2023-04-28T07:24:48.255Z,5.55
2023-04-28T07:27:17.225Z,4.53
2023-04-28T07:29:45.570Z,5.03
2023-04-28T07:32:14.009Z,5.50
2023-04-28T07:34:42.399Z,3.05
2023-04-28T07:37:11.965Z,4.25
2023-04-28T07:39:41.708Z,3.25
2023-04-28T07:42:11.546Z,8.18
2023-04-28T07:44:39.826Z,4.00
2023-04-28T07:47:08.107Z,3.50
2023-04-28T07:49:36.562Z,3.05
2023-04-28T07:52:04.997Z,3.72
2023-04-28T07:54:35.123Z,4.70
2023-04-28T07:57:06.372Z,4.90
2023-04-28T07:59:36.272Z,4.45
2023-04-28T08:02:04.597Z,5.75
2023-04-28T08:04:35.297Z,6.45
2023-04-28T08:07:03.911Z,22.85
2023-04-28T08:09:32.630Z,5.05
2023-04-28T08:12:00.908Z,34.42
2023-04-28T08:14:29.559Z,8.65
2023-04-28T08:16:59.527Z,6.72
2023-04-28T08:19:27.807Z,9.55
2023-04-28T08:21:56.103Z,23.35
2023-04-28T08:24:24.379Z,18.02
2023-04-28T08:26:52.675Z,7.13
2023-04-28T08:29:20.936Z,5.57
2023-04-28T08:31:49.242Z,4.72
2023-04-28T08:34:19.031Z,5.57
2023-04-28T08:36:47.614Z,3.80
2023-04-28T08:39:16.058Z,3.47
2023-04-28T08:41:44.344Z,2.67
2023-04-28T08:44:13.089Z,4.05
2023-04-28T08:46:42.845Z,3.08
2023-04-28T08:49:16.763Z,3.05
2023-04-28T08:51:48.554Z,4.75
2023-04-28T08:54:26.196Z,5.60
2023-04-28T08:56:55.653Z,4.20
2023-04-28T08:59:23.960Z,2.65
2023-04-28T09:01:52.735Z,3.35
2023-04-28T09:04:22.110Z,3.47
2023-04-28T09:06:52.127Z,4.97
2023-04-28T09:09:25.310Z,4.03
2023-04-28T09:11:55.552Z,1.92
2023-04-28T09:14:24.114Z,2.17
2023-04-28T09:16:52.804Z,1.67
2023-04-28T09:19:21.400Z,2.63
2023-04-28T09:21:55.613Z,3.25
2023-04-28T09:24:28.188Z,2.90
2023-04-28T09:26:56.466Z,2.50
2023-04-28T09:29:24.812Z,3.15
2023-04-28T09:31:53.445Z,2.40
2023-04-28T09:34:21.973Z,3.47
2023-04-28T09:36:50.704Z,2.38
2023-04-28T09:39:31.590Z,1.80
2023-04-28T09:42:03.734Z,3.45
2023-04-28T09:44:32.153Z,4.50
2023-04-28T09:47:01.248Z,4.30
2023-04-28T09:49:29.630Z,2.53
2023-04-28T09:52:13.716Z,2.17
2023-04-28T09:54:43.355Z,2.50
2023-04-28T09:57:12.037Z,3.80
2023-04-28T09:59:40.281Z,2.47
2023-04-28T10:02:25.924Z,2.80
2023-04-28T10:04:57.206Z,2.03
2023-04-28T10:07:25.899Z,2.80
2023-04-28T10:09:56.412Z,1.98
2023-04-28T10:14:54.547Z,3.47
2023-04-28T10:17:25.510Z,2.72
2023-04-28T10:19:55.000Z,3.42
2023-04-28T10:22:34.385Z,4.32
2023-04-28T10:25:14.144Z,4.40
2023-04-28T10:27:43.757Z,2.85
2023-04-28T10:30:26.412Z,2.43
2023-04-28T10:33:25.466Z,3.10
2023-04-28T10:35:53.977Z,3.28
2023-04-28T10:38:22.845Z,3.17
2023-04-28T10:40:53.796Z,3.40
2023-04-28T10:43:37.863Z,3.05
2023-04-28T10:46:10.122Z,4.97
2023-04-28T10:48:57.974Z,4.63
2023-04-28T10:51:30.255Z,4.75
2023-04-28T10:54:28.177Z,3.88
2023-04-28T10:57:22.841Z,3.00
2023-04-28T10:59:51.762Z,3.03
2023-04-28T11:02:43.886Z,2.53
2023-04-28T11:05:18.818Z,2.53
2023-04-28T11:08:33.297Z,4.82
2023-04-28T11:11:24.449Z,3.45
2023-04-28T11:13:55.295Z,2.30
2023-04-28T11:16:25.871Z,4.60
2023-04-28T11:21:25.245Z,6.28
2023-04-28T11:23:53.578Z,1.83
2023-04-28T11:26:23.663Z,2.38
2023-04-28T11:28:54.697Z,6.47
2023-04-28T11:31:24.518Z,1.80
2023-04-28T11:33:55.562Z,2.92
2023-04-28T11:36:29.353Z,2.92
2023-04-28T11:38:58.055Z,2.35
2023-04-28T11:41:26.897Z,3.47
2023-04-28T11:43:56.507Z,2.97
2023-04-28T11:46:25.652Z,2.67
2023-04-28T11:49:04.556Z,2.75
2023-04-28T11:51:38.060Z,2.75
2023-04-28T11:54:07.913Z,1.40
2023-04-28T11:56:39.605Z,4.13
2023-04-28T11:59:11.313Z,1.40
2023-04-28T12:01:47.853Z,2.22
2023-04-28T12:04:18.084Z,1.77
2023-04-28T12:06:46.474Z,1.92
2023-04-28T12:09:18.868Z,1.52
2023-04-28T12:11:57.451Z,0.90
2023-04-28T12:14:27.219Z,1.48
2023-04-28T12:16:55.528Z,0.85
2023-04-28T12:19:23.789Z,2.63
2023-04-28T12:22:03.098Z,1.27
2023-04-28T12:24:33.227Z,1.63
2023-04-28T12:27:18.430Z,2.47
2023-04-28T12:29:48.715Z,2.90
2023-04-28T12:32:17.468Z,1.38
2023-04-28T12:34:46.992Z,1.65
2023-04-28T12:37:15.513Z,2.70
2023-04-28T12:39:44.202Z,1.98
2023-04-28T12:42:12.666Z,2.47
2023-04-28T12:44:41.056Z,1.52
2023-04-28T12:47:11.812Z,1.00
2023-04-28T12:49:40.161Z,2.45
2023-04-28T12:52:08.410Z,7.78
2023-04-28T12:54:36.794Z,1.05
2023-04-28T12:57:06.018Z,1.17
2023-04-28T12:59:34.347Z,1.27
2023-04-28T13:02:02.864Z,2.85
2023-04-28T13:04:33.047Z,0.80
2023-04-28T13:07:02.136Z,0.85
2023-04-28T13:09:30.612Z,2.13
2023-04-28T13:12:03.586Z,1.50
2023-04-28T13:14:32.801Z,1.60
2023-04-28T13:17:01.608Z,1.63
2023-04-28T13:19:30.596Z,2.03
2023-04-28T13:22:00.236Z,3.70
2023-04-28T13:24:28.502Z,2.43
2023-04-28T13:26:56.775Z,1.65
2023-04-28T13:29:25.040Z,2.85
2023-04-28T13:31:53.403Z,2.08
2023-04-28T13:34:21.704Z,2.22
2023-04-28T13:36:50.984Z,2.20
2023-04-28T13:39:22.229Z,2.58
2023-04-28T13:41:50.814Z,1.85
2023-04-28T13:44:19.266Z,2.03
2023-04-28T13:46:47.655Z,2.13
2023-04-28T13:49:15.946Z,2.40
2023-04-28T13:51:45.523Z,2.63
2023-04-28T13:54:13.981Z,2.03
2023-04-28T13:56:43.568Z,3.58
2023-04-28T13:59:12.155Z,1.30
2023-04-28T14:01:40.509Z,2.83
2023-04-28T14:04:09.036Z,3.60
2023-04-28T14:06:38.213Z,2.28
2023-04-28T14:09:06.598Z,4.07
2023-04-28T14:11:34.819Z,3.25
2023-04-28T14:14:05.298Z,1.92
2023-04-28T14:19:01.692Z,1.67
2023-04-28T14:21:29.935Z,2.25
2023-04-28T14:23:58.278Z,1.75
2023-04-28T14:26:26.542Z,1.65
2023-04-28T14:28:55.199Z,1.40
2023-04-28T14:31:24.979Z,2.95
2023-04-28T14:33:53.282Z,1.70
2023-04-28T14:36:21.542Z,2.25
2023-04-28T14:38:49.843Z,3.20
2023-04-28T14:41:18.077Z,2.25
2023-04-28T14:43:46.493Z,1.92
2023-04-28T14:46:14.845Z,1.08
2023-04-28T14:48:44.588Z,1.33
2023-04-28T14:51:12.911Z,2.53
2023-04-28T14:53:41.944Z,1.33
2023-04-28T14:56:18.765Z,2.75
2023-04-28T14:58:47.692Z,1.00
2023-04-28T15:01:16.049Z,2.10
2023-04-28T15:03:46.082Z,2.30
2023-04-28T15:06:14.562Z,1.20
2023-04-28T15:08:42.770Z,1.30
2023-04-28T15:11:11.190Z,1.35
2023-04-28T15:13:40.998Z,3.22
2023-04-28T15:16:10.836Z,1.17
2023-04-28T15:18:39.456Z,0.77
2023-04-28T15:21:09.427Z,4.57
2023-04-28T15:23:37.712Z,4.30
2023-04-28T15:26:06.671Z,1.55
2023-04-28T15:28:35.293Z,1.15
2023-04-28T15:31:04.917Z,1.88
2023-04-28T15:33:33.876Z,2.67
2023-04-28T15:36:02.188Z,1.85
2023-04-28T15:38:32.008Z,0.98
2023-04-28T15:41:00.267Z,1.67
2023-04-28T15:43:28.526Z,3.80
2023-04-28T15:45:56.984Z,1.80
2023-04-28T15:48:25.400Z,1.83
2023-04-28T15:50:53.708Z,2.20
2023-04-28T15:53:22.254Z,2.42
2023-04-28T15:55:51.859Z,0.90
2023-04-28T15:58:20.885Z,3.23
2023-04-28T16:00:49.151Z,4.53
2023-04-28T16:03:17.603Z,2.95
2023-04-28T16:05:46.249Z,5.63
2023-04-28T16:08:14.734Z,5.15
2023-04-28T16:10:43.022Z,5.22
2023-04-28T16:13:12.739Z,2.65
2023-04-28T16:15:41.854Z,2.83
2023-04-28T16:18:10.374Z,2.58
2023-04-28T16:20:39.115Z,1.67
2023-04-28T16:23:07.706Z,3.58
2023-04-28T16:25:36.478Z,2.55
2023-04-28T16:28:05.142Z,3.47
2023-04-28T16:30:35.236Z,4.70
2023-04-28T16:33:03.707Z,4.32
2023-04-28T16:35:31.966Z,2.80
2023-04-28T16:38:00.390Z,5.57
2023-04-28T16:40:28.894Z,1.80
2023-04-28T16:42:57.525Z,1.50
2023-04-28T16:45:25.828Z,3.22
2023-04-28T16:47:55.486Z,1.88
2023-04-28T16:50:23.743Z,2.37
2023-04-28T16:52:51.990Z,1.95
2023-04-28T16:55:20.222Z,1.92
2023-04-28T16:57:48.506Z,4.28
2023-04-28T17:00:17.570Z,2.30
2023-04-28T17:02:46.080Z,3.20
2023-04-28T17:05:17.820Z,2.67
2023-04-28T17:07:46.090Z,2.33
2023-04-28T17:10:14.439Z,1.73
2023-04-28T17:12:45.504Z,1.50
2023-04-28T17:15:15.220Z,2.08
2023-04-28T17:17:43.621Z,1.77
2023-04-28T17:20:16.665Z,1.35
2023-04-28T17:22:46.963Z,1.85
2023-04-28T17:25:16.052Z,5.65
2023-04-28T17:27:44.513Z,2.42
2023-04-28T17:30:13.299Z,3.53
2023-04-28T17:32:41.614Z,1.13
2023-04-28T17:35:10.600Z,2.33
2023-04-28T17:37:39.048Z,1.15
2023-04-28T17:40:10.484Z,0.80
2023-04-28T17:42:38.757Z,0.68
2023-04-28T17:45:08.064Z,0.65
2023-04-28T17:47:36.516Z,1.40
2023-04-28T17:50:06.053Z,2.35
2023-04-28T17:52:34.368Z,0.73
2023-04-28T17:55:02.608Z,0.88
2023-04-28T17:57:33.117Z,2.05
2023-04-28T18:02:29.946Z,1.05
2023-04-28T18:04:58.368Z,1.52
2023-04-28T18:07:27.492Z,1.38
2023-04-28T18:09:57.187Z,1.85
2023-04-28T18:12:26.218Z,1.83
2023-04-28T18:14:57.715Z,1.45
2023-04-28T18:17:26.250Z,1.52
2023-04-28T18:19:56.820Z,2.17
2023-04-28T18:22:25.302Z,1.42
2023-04-28T18:24:54.342Z,2.38
2023-04-28T18:27:22.675Z,2.22
2023-04-28T18:29:51.035Z,3.85
2023-04-28T18:32:20.765Z,4.78
2023-04-28T18:34:49.586Z,3.90
2023-04-28T18:37:18.035Z,5.82
2023-04-28T18:39:46.367Z,16.77
2023-04-28T18:42:14.963Z,2.78
2023-04-28T18:44:43.191Z,2.25
2023-04-28T18:47:12.801Z,5.35
2023-04-28T18:49:42.718Z,2.03
2023-04-28T18:52:11.035Z,4.47
2023-04-28T18:54:39.375Z,3.17
2023-04-28T18:57:07.765Z,2.97
2023-04-28T18:59:36.079Z,3.97
2023-04-28T19:02:04.696Z,2.45
2023-04-28T19:04:33.089Z,2.45
2023-04-28T19:07:02.904Z,7.18
2023-04-28T19:09:31.293Z,1.87
2023-04-28T19:11:59.513Z,3.72
2023-04-28T19:14:27.782Z,4.35
2023-04-28T19:16:56.029Z,3.17
2023-04-28T19:19:24.401Z,2.20
2023-04-28T19:21:52.657Z,2.33
2023-04-28T19:24:22.454Z,2.55
2023-04-28T19:26:50.740Z,1.30
2023-04-28T19:29:20.085Z,2.03
2023-04-28T19:31:48.924Z,2.00
2023-04-28T19:34:18.154Z,2.40
2023-04-28T19:36:46.435Z,2.20
2023-04-28T19:39:16.434Z,4.40
2023-04-28T19:41:47.696Z,1.98
2023-04-28T19:44:16.757Z,6.72
2023-04-28T19:46:46.274Z,3.80
2023-04-28T19:49:14.703Z,3.67
2023-04-28T19:51:42.988Z,2.88
2023-04-28T19:54:11.238Z,2.28
2023-04-28T19:56:39.561Z,2.17
2023-04-28T19:59:09.503Z,3.92
2023-04-28T20:01:41.867Z,1.70
2023-04-28T20:04:10.737Z,1.85
2023-04-28T20:06:39.877Z,2.05
2023-04-28T20:09:09.659Z,2.20
2023-04-28T20:11:38.120Z,2.40
2023-04-28T20:14:06.374Z,1.75
2023-04-28T20:16:36.703Z,2.85
2023-04-28T20:19:05.044Z,1.67
2023-04-28T20:21:35.085Z,1.20
2023-04-28T20:24:03.331Z,1.17
2023-04-28T20:26:31.685Z,4.75
2023-04-28T20:29:00.317Z,1.60
2023-04-28T20:31:28.665Z,2.25
2023-04-28T20:33:58.613Z,1.50
2023-04-28T20:36:27.408Z,1.58
2023-04-28T20:38:55.751Z,1.13
2023-04-28T20:41:23.958Z,2.47
2023-04-28T20:43:54.423Z,1.90
2023-04-28T20:46:22.707Z,7.47
2023-04-28T20:48:50.954Z,1.08
2023-04-28T20:51:20.599Z,2.67
2023-04-28T20:53:48.821Z,1.93
2023-04-28T20:56:17.082Z,2.33
2023-04-28T20:58:46.530Z,2.08
2023-04-28T21:01:14.799Z,2.67
2023-04-28T21:03:43.525Z,2.22
2023-04-28T21:06:11.919Z,8.13
2023-04-28T21:08:41.874Z,6.25
2023-04-28T21:11:12.911Z,5.53
2023-04-28T21:13:42.682Z,8.98
2023-04-28T21:16:17.636Z,53.28
2023-04-28T21:18:49.160Z,5.40
2023-04-28T21:21:18.274Z,8.45
2023-04-28T21:23:47.950Z,74.28
2023-04-28T21:26:16.531Z,37.13
2023-04-28T21:28:44.782Z,4.47
2023-04-28T21:31:13.568Z,15.23
2023-04-28T21:33:41.830Z,5.50
2023-04-28T21:36:10.165Z,7.13
2023-04-28T21:38:39.004Z,3.45
2023-04-28T21:41:08.782Z,8.77
2023-04-28T21:43:37.280Z,6.30
2023-04-28T21:46:05.795Z,8.00
2023-04-28T21:48:34.740Z,8.32
2023-04-28T21:51:02.983Z,9.93
2023-04-28T21:53:33.470Z,9.80
2023-04-28T21:56:01.837Z,7.95
2023-04-28T21:58:31.448Z,4.20
2023-04-28T22:01:00.310Z,12.25
2023-04-28T22:03:28.941Z,9.98
2023-04-28T22:05:58.125Z,6.63
2023-04-28T22:08:26.685Z,13.18
2023-04-28T22:10:54.907Z,11.23
2023-04-28T22:13:23.540Z,24.27
2023-04-28T22:15:53.301Z,4.75
2023-04-28T22:18:21.719Z,21.48
2023-04-28T22:20:50.449Z,4.63
2023-04-28T22:23:18.738Z,16.77
2023-04-28T22:25:47.049Z,8.77
2023-04-28T22:28:15.447Z,12.23
2023-04-28T22:30:43.696Z,32.25
2023-04-28T22:33:13.370Z,63.00
2023-04-28T22:35:41.767Z,8.47
2023-04-28T22:38:10.012Z,16.13
2023-04-28T22:40:38.260Z,14.95
2023-04-28T22:43:06.593Z,7.80
2023-04-28T22:45:34.877Z,8.55
2023-04-28T22:48:03.222Z,7.13
2023-04-28T22:50:32.851Z,8.25
2023-04-28T22:53:01.096Z,4.57
2023-04-28T22:55:29.806Z,5.22
2023-04-28T22:57:58.599Z,6.65
2023-04-28T23:00:26.862Z,10.70
2023-04-28T23:02:55.304Z,3.90
2023-04-28T23:05:23.599Z,10.35
2023-04-28T23:07:53.231Z,2.40
2023-04-28T23:10:21.524Z,5.60
2023-04-28T23:12:49.750Z,4.28
2023-04-28T23:15:17.990Z,6.50
2023-04-28T23:17:46.447Z,2.70
2023-04-28T23:20:15.209Z,6.88
2023-04-28T23:22:43.468Z,4.80
2023-04-28T23:25:13.258Z,4.97
2023-04-28T23:27:41.551Z,7.03
2023-04-28T23:30:11.020Z,4.43
2023-04-28T23:32:39.596Z,4.60
2023-04-28T23:35:08.405Z,5.38
2023-04-28T23:37:36.926Z,9.70
2023-04-28T23:40:05.986Z,6.60
2023-04-28T23:42:35.819Z,3.55
2023-04-28T23:45:04.440Z,4.10
2023-04-28T23:47:33.027Z,3.40
2023-04-28T23:50:01.319Z,2.55
2023-04-28T23:52:29.818Z,8.93
2023-04-28T23:54:58.694Z,2.95
2023-04-28T23:57:27.483Z,8.38
2023-04-28T23:59:57.468Z,2.80
